Time;durP1;ratioP1;P1;durP2;ratioP2;P2;SDS_P1;SDS_P2;PMS_P1;PMS_P2;Temp;Humidity;BMP_temperature;BMP_pressure;BME280_temperature;BME280_humidity;BME280_pressure;Samples;Min_cycle;Max_cycle;Signal;HPM_P1;HPM_P2
2022/10/21 00:00:54;;;;;;;24.60;10.90;;;15.20;99.90;;;;;;5001462;28;20053;-72
2022/10/21 00:03:20;;;;;;;17.97;10.37;;;15.20;99.90;;;;;;5006413;28;20033;-72
2022/10/21 00:05:47;;;;;;;19.60;10.57;;;15.30;99.90;;;;;;5003405;28;20121;-72
2022/10/21 00:08:13;;;;;;;17.10;10.02;;;15.30;99.90;;;;;;4997583;28;20121;-72
2022/10/21 00:10:39;;;;;;;17.73;9.40;;;15.10;99.90;;;;;;5005545;28;20030;-71
2022/10/21 00:13:05;;;;;;;15.65;10.10;;;15.10;99.90;;;;;;4996261;28;20052;-72
2022/10/21 00:15:30;;;;;;;16.58;10.02;;;15.00;99.90;;;;;;4997158;28;20054;-72
2022/10/21 00:17:56;;;;;;;18.67;10.90;;;15.10;99.90;;;;;;4995639;28;20022;-72
2022/10/21 00:20:22;;;;;;;13.68;9.00;;;15.10;99.90;;;;;;4994537;28;20420;-72
2022/10/21 00:22:47;;;;;;;17.58;8.88;;;15.10;99.90;;;;;;4996587;28;20022;-72
2022/10/21 00:25:13;;;;;;;20.35;9.82;;;15.20;99.90;;;;;;4996820;28;20072;-73
2022/10/21 00:27:38;;;;;;;15.43;9.05;;;15.30;99.90;;;;;;4999734;28;20042;-72
2022/10/21 00:30:06;;;;;;;17.25;8.65;;;15.30;99.90;;;;;;4993634;28;20037;-72
2022/10/21 00:32:31;;;;;;;14.82;9.57;;;15.30;99.90;;;;;;5008134;28;20084;-72
2022/10/21 00:34:57;;;;;;;18.90;10.05;;;15.10;99.90;;;;;;4996763;28;20049;-72
2022/10/21 00:37:23;;;;;;;14.50;8.82;;;15.10;99.90;;;;;;4996888;28;20034;-72
2022/10/21 00:39:50;;;;;;;17.25;9.65;;;15.00;99.90;;;;;;4998309;28;20484;-72
2022/10/21 00:42:20;;;;;;;16.55;9.52;;;15.00;99.90;;;;;;4992848;28;20388;-72
2022/10/21 00:45:18;;;;;;;13.63;8.50;;;15.10;99.90;;;;;;4993514;28;20034;-72
2022/10/21 00:48:01;;;;;;;14.65;8.82;;;15.20;99.90;;;;;;5004968;28;20041;-72
2022/10/21 00:50:48;;;;;;;14.07;8.85;;;15.20;99.90;;;;;;4995474;28;20037;-72
2022/10/21 00:53:15;;;;;;;17.05;8.57;;;15.00;99.90;;;;;;4997714;28;20042;-72
2022/10/21 00:55:47;;;;;;;15.52;9.25;;;14.90;99.90;;;;;;5001300;28;20405;-72
2022/10/21 00:58:14;;;;;;;15.13;9.38;;;14.90;99.90;;;;;;5001328;28;20025;-73
2022/10/21 01:00:40;;;;;;;16.38;9.35;;;14.90;99.90;;;;;;4997386;28;20370;-72
2022/10/21 01:03:05;;;;;;;16.83;9.05;;;14.80;99.90;;;;;;4995263;28;20042;-72
2022/10/21 01:05:32;;;;;;;19.23;10.18;;;14.80;99.90;;;;;;4996471;28;20083;-72
2022/10/21 01:07:58;;;;;;;16.52;9.85;;;14.80;99.90;;;;;;4997620;28;20033;-72
2022/10/21 01:10:23;;;;;;;15.23;10.40;;;14.90;99.90;;;;;;4997546;28;20050;-72
2022/10/21 01:13:07;;;;;;;14.43;9.18;;;14.80;99.90;;;;;;4995700;28;20035;-73
2022/10/21 01:16:05;;;;;;;18.58;10.10;;;14.70;99.90;;;;;;4993109;28;20109;-72
2022/10/21 01:18:53;;;;;;;16.27;10.40;;;14.70;99.90;;;;;;4997564;28;20026;-72
2022/10/21 01:21:32;;;;;;;17.25;10.10;;;14.60;99.90;;;;;;4999467;28;20040;-72
2022/10/21 01:24:28;;;;;;;16.08;9.32;;;14.60;99.90;;;;;;5000882;28;20033;-72
2022/10/21 01:27:01;;;;;;;15.88;10.38;;;14.50;99.90;;;;;;4992463;28;20030;-72
2022/10/21 01:30:05;;;;;;;16.90;9.80;;;14.70;99.90;;;;;;4995554;28;20032;-72
2022/10/21 01:32:39;;;;;;;16.75;9.52;;;14.80;99.90;;;;;;5000271;28;20148;-72
2022/10/21 01:35:37;;;;;;;17.02;10.13;;;14.70;99.90;;;;;;5000784;28;20022;-72
2022/10/21 01:38:10;;;;;;;18.95;10.35;;;14.70;99.90;;;;;;4995777;28;20049;-72
2022/10/21 01:40:49;;;;;;;17.23;9.43;;;14.70;99.90;;;;;;4991802;28;20030;-72
2022/10/21 01:43:40;;;;;;;16.88;11.02;;;14.70;99.90;;;;;;5004899;28;20030;-73
2022/10/21 01:46:13;;;;;;;17.98;10.57;;;14.70;99.90;;;;;;4979624;28;20041;-72
2022/10/21 01:48:46;;;;;;;16.85;9.57;;;14.60;99.90;;;;;;5007785;28;20034;-73
2022/10/21 01:51:13;;;;;;;15.63;9.75;;;14.60;99.90;;;;;;4991817;28;20069;-72
2022/10/21 01:53:45;;;;;;;21.63;9.82;;;14.60;99.90;;;;;;5006098;28;20074;-72
2022/10/21 01:56:13;;;;;;;20.15;10.80;;;14.40;99.90;;;;;;4995262;28;20062;-72
2022/10/21 01:58:42;;;;;;;21.88;10.90;;;14.40;99.90;;;;;;4991204;28;20038;-72
2022/10/21 02:01:11;;;;;;;21.92;9.98;;;14.40;99.90;;;;;;5001329;28;20023;-72
2022/10/21 02:03:40;;;;;;;23.80;10.45;;;14.30;99.90;;;;;;4994213;28;20515;-72
2022/10/21 02:06:07;;;;;;;19.25;11.13;;;14.20;99.90;;;;;;4992163;28;20030;-72
2022/10/21 02:08:33;;;;;;;17.40;11.02;;;14.20;99.90;;;;;;5005833;28;20128;-72
2022/10/21 02:11:02;;;;;;;18.73;11.15;;;14.30;99.90;;;;;;4993772;28;20037;-72
2022/10/21 02:13:33;;;;;;;23.05;11.07;;;14.30;99.90;;;;;;4997768;28;20505;-72
2022/10/21 02:16:03;;;;;;;19.98;11.30;;;14.50;99.90;;;;;;4995147;28;22799;-72
2022/10/21 02:18:28;;;;;;;20.02;11.73;;;14.60;99.90;;;;;;4996938;28;20026;-72
2022/10/21 02:21:11;;;;;;;18.52;10.52;;;14.80;99.90;;;;;;4997859;28;20029;-72
2022/10/21 02:23:52;;;;;;;16.48;10.50;;;14.80;99.90;;;;;;5000731;28;20049;-72
2022/10/21 02:26:23;;;;;;;17.23;11.50;;;14.60;99.90;;;;;;4996240;28;20056;-72
2022/10/21 02:28:49;;;;;;;16.85;10.30;;;14.60;99.90;;;;;;4993024;28;20038;-72
2022/10/21 02:31:21;;;;;;;20.23;9.77;;;14.50;99.90;;;;;;4991531;28;20128;-72
2022/10/21 02:34:04;;;;;;;18.75;10.18;;;14.50;99.90;;;;;;5002021;28;20072;-72
2022/10/21 02:36:33;;;;;;;19.52;10.60;;;14.40;99.90;;;;;;4997260;28;20114;-72
2022/10/21 02:39:05;;;;;;;17.35;10.93;;;14.40;99.90;;;;;;4995286;28;20042;-72
2022/10/21 02:41:33;;;;;;;16.75;9.88;;;14.20;99.90;;;;;;4990116;28;20030;-72
2022/10/21 02:44:01;;;;;;;16.65;10.77;;;14.10;99.90;;;;;;4999572;28;20030;-72
2022/10/21 02:46:38;;;;;;;19.33;11.50;;;14.10;99.90;;;;;;4989809;28;20045;-72
2022/10/21 02:49:04;;;;;;;18.33;10.90;;;14.10;99.90;;;;;;4990057;28;20034;-73
2022/10/21 02:51:30;;;;;;;19.25;11.07;;;14.10;99.90;;;;;;4989428;28;20102;-73
2022/10/21 02:53:56;;;;;;;20.30;10.73;;;14.00;99.90;;;;;;5001789;28;20054;-72
2022/10/21 02:56:22;;;;;;;16.35;10.52;;;14.00;99.90;;;;;;4999413;28;20349;-72
2022/10/21 02:58:47;;;;;;;22.10;11.43;;;14.00;99.90;;;;;;4989976;28;20030;-72
2022/10/21 03:01:13;;;;;;;21.05;11.15;;;13.90;99.90;;;;;;4994014;28;20026;-72
2022/10/21 03:03:39;;;;;;;21.63;10.63;;;13.90;99.90;;;;;;4987817;28;20034;-72
2022/10/21 03:06:04;;;;;;;19.48;10.85;;;13.80;99.90;;;;;;4991443;28;20031;-73
2022/10/21 03:08:30;;;;;;;21.38;11.85;;;13.80;99.90;;;;;;5001881;28;20022;-73
2022/10/21 03:10:56;;;;;;;23.00;12.15;;;13.90;99.90;;;;;;4988588;28;20076;-73
2022/10/21 03:13:22;;;;;;;21.67;12.15;;;14.00;99.90;;;;;;4988674;28;20600;-73
2022/10/21 03:15:49;;;;;;;19.40;11.68;;;14.10;99.90;;;;;;4991075;28;20124;-73
2022/10/21 03:18:15;;;;;;;22.33;12.25;;;14.20;99.90;;;;;;4997170;28;20109;-73
2022/10/21 03:20:40;;;;;;;19.65;11.25;;;14.20;99.90;;;;;;4997236;28;20169;-73
2022/10/21 03:23:06;;;;;;;18.25;11.95;;;14.20;99.90;;;;;;4997697;28;20025;-73
2022/10/21 03:25:32;;;;;;;18.17;10.73;;;14.10;99.90;;;;;;4997322;28;20042;-73
2022/10/21 03:27:57;;;;;;;20.30;11.65;;;14.00;99.90;;;;;;4989837;28;20030;-73
2022/10/21 03:30:23;;;;;;;16.65;10.32;;;13.90;99.90;;;;;;4996766;28;20117;-73
2022/10/21 03:32:49;;;;;;;21.92;12.52;;;14.00;99.90;;;;;;4988661;28;20477;-73
2022/10/21 03:35:14;;;;;;;18.63;12.25;;;14.00;99.90;;;;;;4987725;28;20046;-73
2022/10/21 03:37:40;;;;;;;20.92;12.38;;;14.10;99.90;;;;;;4990395;28;20065;-73
2022/10/21 03:40:06;;;;;;;23.52;12.10;;;14.10;99.90;;;;;;4991077;28;20093;-72
2022/10/21 03:42:32;;;;;;;18.83;11.50;;;14.10;99.90;;;;;;4996721;28;20544;-73
2022/10/21 03:44:57;;;;;;;18.70;11.98;;;14.10;99.90;;;;;;4999225;28;20109;-72
2022/10/21 03:47:23;;;;;;;21.17;11.27;;;14.10;99.90;;;;;;4989714;28;20030;-73
2022/10/21 03:49:49;;;;;;;17.00;10.00;;;14.00;99.90;;;;;;4999919;28;20061;-72
2022/10/21 03:52:14;;;;;;;16.92;10.63;;;14.00;99.90;;;;;;4992362;28;20042;-73
2022/10/21 03:54:40;;;;;;;15.25;9.02;;;13.90;99.90;;;;;;4994649;28;20121;-73
2022/10/21 03:57:07;;;;;;;17.23;10.30;;;13.80;99.90;;;;;;4998499;28;20076;-72
2022/10/21 03:59:32;;;;;;;20.63;10.18;;;13.80;99.90;;;;;;4994144;28;20042;-73
2022/10/21 04:01:58;;;;;;;18.80;10.75;;;13.80;99.90;;;;;;4994279;28;20100;-73
2022/10/21 04:04:24;;;;;;;18.85;11.55;;;13.80;99.90;;;;;;4999772;28;20029;-73
2022/10/21 04:06:49;;;;;;;18.17;10.52;;;14.00;99.90;;;;;;4987295;28;20053;-73
2022/10/21 04:09:15;;;;;;;20.48;12.30;;;14.00;99.90;;;;;;4991459;28;20874;-73
2022/10/21 04:11:41;;;;;;;19.05;11.45;;;13.90;99.90;;;;;;5000445;28;20049;-73
2022/10/21 04:14:06;;;;;;;19.33;11.63;;;13.90;99.90;;;;;;4989303;28;20038;-72
2022/10/21 04:16:33;;;;;;;17.05;10.65;;;13.80;99.90;;;;;;4987970;28;20108;-73
2022/10/21 04:18:59;;;;;;;20.63;11.27;;;13.80;99.90;;;;;;4997032;28;20037;-72
2022/10/21 04:21:24;;;;;;;18.52;10.75;;;13.70;99.90;;;;;;4996481;28;20411;-73
2022/10/21 04:23:50;;;;;;;15.82;10.13;;;13.60;99.90;;;;;;4993788;28;20026;-73
2022/10/21 04:26:16;;;;;;;18.77;10.50;;;13.70;99.90;;;;;;4996112;28;20018;-73
2022/10/21 04:28:41;;;;;;;18.75;11.45;;;13.90;99.90;;;;;;4998366;28;20026;-73
2022/10/21 04:31:07;;;;;;;23.00;11.80;;;13.90;99.90;;;;;;4986965;28;20046;-73
2022/10/21 04:33:33;;;;;;;22.73;12.05;;;14.00;99.90;;;;;;4996185;28;20142;-73
2022/10/21 04:35:58;;;;;;;21.67;12.18;;;14.10;99.90;;;;;;4995836;28;20030;-72
2022/10/21 04:38:25;;;;;;;19.73;11.18;;;14.20;99.90;;;;;;4993765;28;20030;-73
2022/10/21 04:40:56;;;;;;;16.40;11.10;;;14.20;99.90;;;;;;4997185;28;20128;-73
2022/10/21 04:43:21;;;;;;;15.95;9.70;;;14.10;99.90;;;;;;4984627;28;20041;-73
2022/10/21 04:45:47;;;;;;;19.70;10.38;;;14.00;99.90;;;;;;4990044;28;20030;-73
2022/10/21 04:48:12;;;;;;;17.63;10.55;;;13.90;99.90;;;;;;4994340;28;20038;-73
2022/10/21 04:50:38;;;;;;;19.85;11.25;;;13.80;99.90;;;;;;4996023;28;20052;-73
2022/10/21 04:53:04;;;;;;;16.23;10.18;;;13.80;99.90;;;;;;4989477;28;20502;-73
2022/10/21 04:55:29;;;;;;;18.85;11.02;;;13.80;99.90;;;;;;4996244;28;20125;-73
2022/10/21 04:57:55;;;;;;;18.38;10.27;;;13.70;99.90;;;;;;4990720;28;20049;-73
2022/10/21 05:00:21;;;;;;;17.10;10.30;;;13.60;99.90;;;;;;4984846;28;20062;-73
2022/10/21 05:02:47;;;;;;;18.08;10.68;;;13.40;99.90;;;;;;4983531;28;20492;-72
2022/10/21 05:05:12;;;;;;;25.15;11.98;;;13.40;99.90;;;;;;4986139;28;20037;-73
2022/10/21 05:07:38;;;;;;;18.30;10.32;;;13.40;99.90;;;;;;4992049;28;20367;-73
2022/10/21 05:10:05;;;;;;;21.98;11.82;;;13.40;99.90;;;;;;4988127;28;20379;-72
2022/10/21 05:12:30;;;;;;;20.58;10.98;;;13.50;99.90;;;;;;4986581;28;20096;-73
2022/10/21 05:14:56;;;;;;;22.77;11.55;;;13.60;99.90;;;;;;4995211;28;20087;-73
2022/10/21 05:17:22;;;;;;;18.60;11.70;;;13.50;99.90;;;;;;4993342;28;20558;-72
2022/10/21 05:19:47;;;;;;;18.05;11.60;;;13.50;99.90;;;;;;4995509;28;20026;-73
2022/10/21 05:22:13;;;;;;;18.70;10.38;;;13.50;99.90;;;;;;4992793;28;20101;-72
2022/10/21 05:24:39;;;;;;;18.75;10.68;;;13.60;99.90;;;;;;4994132;28;20113;-72
2022/10/21 05:27:04;;;;;;;20.42;11.77;;;13.60;99.90;;;;;;4986890;28;20058;-72
2022/10/21 05:29:30;;;;;;;24.00;12.25;;;13.70;99.90;;;;;;4988553;28;20105;-72
2022/10/21 05:31:56;;;;;;;22.38;11.55;;;13.90;99.90;;;;;;5003663;28;20037;-72
2022/10/21 05:34:21;;;;;;;15.50;9.07;;;13.90;99.90;;;;;;4987466;28;20120;-72
2022/10/21 05:36:47;;;;;;;18.77;10.25;;;13.90;99.90;;;;;;4988270;28;20034;-72
2022/10/21 05:39:14;;;;;;;16.13;9.95;;;13.80;99.90;;;;;;4991777;28;20084;-72
2022/10/21 05:41:39;;;;;;;19.60;10.13;;;13.70;99.90;;;;;;4997409;28;20083;-72
2022/10/21 05:44:05;;;;;;;18.95;10.55;;;13.70;99.90;;;;;;4998812;28;20030;-72
2022/10/21 05:46:30;;;;;;;18.05;10.18;;;13.60;99.90;;;;;;4990321;28;20964;-72
2022/10/21 05:48:56;;;;;;;20.02;11.35;;;13.60;99.90;;;;;;4995619;28;20034;-73
2022/10/21 05:51:25;;;;;;;20.17;11.98;;;13.70;99.90;;;;;;4990702;28;20035;-72
2022/10/21 05:53:52;;;;;;;20.60;11.75;;;13.80;99.90;;;;;;4997504;28;20106;-72
2022/10/21 05:56:17;;;;;;;20.83;13.18;;;14.00;99.90;;;;;;4988314;28;20044;-72
2022/10/21 05:58:43;;;;;;;17.90;11.18;;;14.10;99.90;;;;;;5000338;28;20829;-72
2022/10/21 06:01:09;;;;;;;18.88;11.18;;;14.00;99.90;;;;;;4990495;28;20053;-72
2022/10/21 06:03:34;;;;;;;17.52;9.10;;;13.90;99.90;;;;;;4991115;28;20528;-72
2022/10/21 06:06:03;;;;;;;17.50;10.73;;;14.00;99.90;;;;;;4999718;28;20116;-72
2022/10/21 06:08:30;;;;;;;21.98;11.13;;;13.90;99.90;;;;;;4997200;28;20026;-72
2022/10/21 06:11:04;;;;;;;18.60;10.95;;;13.70;99.90;;;;;;4994641;28;20120;-72
2022/10/21 06:13:30;;;;;;;17.35;10.65;;;13.80;99.90;;;;;;4992218;28;20034;-72
2022/10/21 06:15:56;;;;;;;16.45;9.70;;;13.80;99.90;;;;;;4993235;28;20050;-72
2022/10/21 06:18:22;;;;;;;17.00;10.45;;;13.80;99.90;;;;;;4987127;28;20030;-72
2022/10/21 06:20:48;;;;;;;19.17;10.65;;;13.80;99.90;;;;;;4990195;28;20049;-72
2022/10/21 06:23:15;;;;;;;15.27;9.70;;;13.80;99.90;;;;;;4997085;28;20384;-72
2022/10/21 06:25:41;;;;;;;16.17;10.65;;;13.70;99.90;;;;;;4992483;28;20080;-72
2022/10/21 06:28:07;;;;;;;24.33;12.15;;;13.70;99.90;;;;;;4995608;28;20030;-72
2022/10/21 06:30:33;;;;;;;17.58;11.68;;;13.80;99.90;;;;;;4991060;28;20038;-72
2022/10/21 06:32:59;;;;;;;28.33;10.15;;;13.80;99.90;;;;;;4996584;28;20041;-72
2022/10/21 06:35:24;;;;;;;16.48;10.23;;;13.90;99.90;;;;;;4986694;28;20049;-72
2022/10/21 06:37:50;;;;;;;17.67;11.35;;;13.90;99.90;;;;;;4985701;28;20441;-72
2022/10/21 06:40:15;;;;;;;19.95;11.50;;;14.00;99.90;;;;;;4987196;28;20033;-72
2022/10/21 06:42:41;;;;;;;16.08;10.77;;;14.00;99.90;;;;;;4984035;28;20081;-72
2022/10/21 06:45:07;;;;;;;17.58;11.57;;;13.80;99.90;;;;;;4991778;28;20448;-72
2022/10/21 06:47:33;;;;;;;18.05;9.93;;;13.80;99.90;;;;;;4988161;28;20037;-72
2022/10/21 06:50:01;;;;;;;23.70;12.05;;;13.90;99.90;;;;;;4987362;28;20136;-72
2022/10/21 06:52:29;;;;;;;17.13;11.05;;;13.90;99.90;;;;;;4997630;28;20033;-72
2022/10/21 06:54:55;;;;;;;16.33;10.35;;;14.00;99.90;;;;;;4989700;28;20034;-71
2022/10/21 06:57:20;;;;;;;18.33;11.02;;;14.00;99.90;;;;;;4990903;28;20065;-72
2022/10/21 06:59:47;;;;;;;17.90;10.25;;;14.10;99.90;;;;;;4998972;28;20030;-72
2022/10/21 07:02:12;;;;;;;19.10;11.40;;;14.10;99.90;;;;;;4992501;28;20030;-72
2022/10/21 07:04:38;;;;;;;17.55;11.20;;;14.10;99.90;;;;;;5004127;28;20393;-72
2022/10/21 07:07:04;;;;;;;19.05;10.90;;;14.10;99.90;;;;;;4993369;28;20030;-72
2022/10/21 07:09:30;;;;;;;15.90;10.98;;;14.20;99.90;;;;;;4999904;28;20095;-72
2022/10/21 07:11:55;;;;;;;17.67;11.00;;;14.20;99.90;;;;;;4996576;28;20033;-72
2022/10/21 07:14:21;;;;;;;20.25;11.13;;;14.30;99.90;;;;;;5002951;28;20031;-73
2022/10/21 07:16:47;;;;;;;21.35;12.15;;;14.20;99.90;;;;;;5003675;28;20622;-73
2022/10/21 07:19:13;;;;;;;17.27;11.50;;;14.20;99.90;;;;;;4995904;28;20029;-72
2022/10/21 07:21:39;;;;;;;18.35;10.57;;;14.30;99.90;;;;;;4998993;28;20034;-72
2022/10/21 07:24:05;;;;;;;19.55;11.48;;;14.40;99.90;;;;;;4992144;28;20031;-72
2022/10/21 07:26:32;;;;;;;20.30;10.68;;;14.40;99.90;;;;;;4992945;28;20164;-72
2022/10/21 07:28:59;;;;;;;23.38;11.38;;;14.40;99.90;;;;;;4992703;28;20038;-72
2022/10/21 07:31:26;;;;;;;16.48;10.40;;;14.40;99.90;;;;;;4999905;28;20443;-72
2022/10/21 07:33:52;;;;;;;20.90;11.48;;;14.50;99.90;;;;;;4986458;28;20038;-72
2022/10/21 07:36:24;;;;;;;25.52;11.30;;;14.50;99.90;;;;;;4977776;28;20030;-71
2022/10/21 07:38:51;;;;;;;20.38;10.82;;;14.50;99.90;;;;;;4992482;28;20123;-71
2022/10/21 07:41:23;;;;;;;20.80;12.25;;;14.40;99.90;;;;;;4994725;28;20026;-71
2022/10/21 07:43:49;;;;;;;21.08;11.20;;;14.40;99.90;;;;;;5000145;28;20100;-71
2022/10/21 07:46:15;;;;;;;20.98;11.02;;;14.50;99.90;;;;;;4989168;28;20026;-71
2022/10/21 07:48:41;;;;;;;16.60;10.75;;;14.60;99.90;;;;;;5001768;28;20148;-74
2022/10/21 07:51:11;;;;;;;17.13;10.00;;;14.60;99.90;;;;;;4993273;28;20091;-71
2022/10/21 07:53:37;;;;;;;17.20;10.13;;;14.70;99.90;;;;;;4992301;28;20030;-72
2022/10/21 07:56:19;;;;;;;16.15;10.98;;;14.90;99.90;;;;;;4991508;28;20037;-71
2022/10/21 07:58:47;;;;;;;18.10;10.23;;;15.00;99.90;;;;;;4991217;28;20033;-72
2022/10/21 08:01:14;;;;;;;17.52;10.07;;;15.10;99.90;;;;;;4996749;28;20072;-71
2022/10/21 08:03:41;;;;;;;21.77;11.75;;;15.20;99.90;;;;;;4992398;28;20563;-71
2022/10/21 08:06:08;;;;;;;17.55;11.20;;;15.30;99.90;;;;;;4998249;28;20033;-72
2022/10/21 08:08:34;;;;;;;20.88;11.48;;;15.30;99.90;;;;;;4996277;28;20037;-72
2022/10/21 08:11:01;;;;;;;17.98;11.05;;;15.20;99.90;;;;;;4995287;28;20038;-71
2022/10/21 08:13:26;;;;;;;17.95;11.00;;;15.10;99.90;;;;;;4992825;28;20121;-73
2022/10/21 08:15:53;;;;;;;22.70;11.32;;;15.10;99.90;;;;;;4995805;28;20121;-74
2022/10/21 08:18:20;;;;;;;18.13;10.95;;;15.10;99.90;;;;;;4996871;28;20026;-74
2022/10/21 08:20:47;;;;;;;18.45;10.77;;;15.10;99.90;;;;;;4993190;28;20044;-74
2022/10/21 08:23:15;;;;;;;19.10;11.10;;;15.20;99.90;;;;;;4989825;28;20026;-74
2022/10/21 08:25:49;;;;;;;19.80;11.27;;;15.30;99.90;;;;;;4994970;28;20032;-73
2022/10/21 08:28:15;;;;;;;20.65;11.55;;;15.20;99.90;;;;;;4994819;28;20030;-73
2022/10/21 08:30:42;;;;;;;18.30;10.80;;;15.30;99.90;;;;;;5003575;28;20034;-74
2022/10/21 08:33:08;;;;;;;17.35;11.07;;;15.30;99.90;;;;;;4993284;28;20073;-73
2022/10/21 08:35:33;;;;;;;21.10;10.90;;;15.30;99.90;;;;;;4992225;28;20857;-74
2022/10/21 08:37:59;;;;;;;20.27;11.18;;;15.20;99.90;;;;;;4993182;28;20022;-71
2022/10/21 08:40:28;;;;;;;18.70;11.75;;;15.20;99.90;;;;;;4993629;28;20030;-73
2022/10/21 08:42:53;;;;;;;16.63;10.50;;;15.40;99.90;;;;;;4994005;28;20433;-73
2022/10/21 08:45:45;;;;;;;23.35;11.43;;;15.50;99.90;;;;;;4984012;28;20106;-73
2022/10/21 08:48:19;;;;;;;17.77;11.68;;;15.50;99.90;;;;;;4980956;28;20610;-74
2022/10/21 08:50:49;;;;;;;16.63;10.50;;;15.60;99.90;;;;;;4997347;28;20034;-73
2022/10/21 08:53:30;;;;;;;19.80;11.65;;;15.50;99.90;;;;;;4996117;28;20049;-73
2022/10/21 08:56:06;;;;;;;16.92;10.23;;;15.60;99.90;;;;;;4991888;28;20048;-74
2022/10/21 08:58:32;;;;;;;17.25;10.23;;;15.60;99.90;;;;;;4991031;28;20034;-74
2022/10/21 09:01:04;;;;;;;16.02;10.68;;;15.60;99.90;;;;;;4991413;28;20515;-73
2022/10/21 09:04:07;;;;;;;18.60;10.90;;;15.60;99.90;;;;;;4993546;28;20451;-73
2022/10/21 09:06:53;;;;;;;17.27;10.40;;;15.80;99.90;;;;;;4991972;28;20038;-73
2022/10/21 09:09:22;;;;;;;16.33;10.93;;;15.80;99.90;;;;;;4995736;28;20026;-74
2022/10/21 09:12:10;;;;;;;18.50;10.93;;;15.90;99.90;;;;;;4994297;28;20412;-74
2022/10/21 09:15:12;;;;;;;20.88;11.18;;;15.90;99.90;;;;;;4991311;28;20489;-73
2022/10/21 09:17:47;;;;;;;19.23;11.48;;;15.90;99.90;;;;;;4996528;28;20026;-74
2022/10/21 09:21:06;;;;;;;21.40;12.43;;;16.00;99.90;;;;;;4996344;28;20026;-74
2022/10/21 09:23:56;;;;;;;19.55;12.35;;;15.90;99.90;;;;;;4990113;28;20635;-74
2022/10/21 09:26:41;;;;;;;20.35;12.70;;;15.90;99.90;;;;;;4993137;28;20550;-73
2022/10/21 09:29:30;;;;;;;19.88;12.20;;;15.70;99.90;;;;;;5000572;28;20515;-73
2022/10/21 09:32:19;;;;;;;20.42;12.70;;;15.60;99.90;;;;;;4986180;28;20031;-73
2022/10/21 09:34:44;;;;;;;19.27;12.18;;;15.70;99.90;;;;;;4983630;28;20045;-73
2022/10/21 09:37:38;;;;;;;20.98;10.68;;;15.80;99.90;;;;;;4983092;28;20033;-73
2022/10/21 09:40:23;;;;;;;21.17;10.82;;;15.70;99.90;;;;;;4993877;28;20038;-73
2022/10/21 09:42:54;;;;;;;17.80;11.93;;;16.00;99.90;;;;;;4990303;28;20034;-74
2022/10/21 09:45:34;;;;;;;23.92;13.00;;;15.90;99.90;;;;;;4992217;28;20120;-73
2022/10/21 09:48:18;;;;;;;19.55;10.70;;;16.00;99.90;;;;;;4999256;28;20022;-73
2022/10/21 09:50:47;;;;;;;20.27;12.48;;;16.00;99.90;;;;;;4984669;28;20444;-74
2022/10/21 09:53:28;;;;;;;22.67;13.85;;;15.90;99.90;;;;;;5001798;28;20034;-74
2022/10/21 09:56:01;;;;;;;113.90;102.45;;;15.90;99.90;;;;;;4993628;28;20065;-74
2022/10/21 09:59:01;;;;;;;35.45;31.60;;;15.90;99.90;;;;;;4994447;28;20025;-73
2022/10/21 10:01:28;;;;;;;22.70;14.68;;;16.00;99.90;;;;;;4991612;28;20026;-74
2022/10/21 10:03:54;;;;;;;18.77;13.25;;;16.20;99.90;;;;;;4993478;28;20072;-73
2022/10/21 10:06:34;;;;;;;22.70;17.80;;;16.30;99.90;;;;;;4992033;28;20035;-74
2022/10/21 10:09:14;;;;;;;16.13;10.95;;;16.40;99.90;;;;;;4986503;28;20033;-74
2022/10/21 10:12:04;;;;;;;19.10;11.98;;;16.40;99.90;;;;;;5000451;28;20091;-74
2022/10/21 10:14:32;;;;;;;18.98;11.75;;;16.30;99.90;;;;;;4986232;28;20057;-74
2022/10/21 10:17:22;;;;;;;20.83;10.38;;;16.50;99.90;;;;;;4996351;28;20050;-74
2022/10/21 10:20:18;;;;;;;21.83;12.50;;;16.50;99.90;;;;;;4992045;28;20030;-73
2022/10/21 10:23:05;;;;;;;19.52;11.20;;;16.50;99.90;;;;;;4996696;28;20045;-73
2022/10/21 10:25:33;;;;;;;19.40;14.15;;;16.60;99.90;;;;;;4990848;28;20503;-74
2022/10/21 10:28:08;;;;;;;27.13;14.40;;;16.50;99.90;;;;;;4989365;28;20034;-74
2022/10/21 10:30:42;;;;;;;22.25;12.50;;;16.60;99.90;;;;;;4992544;28;20117;-73
2022/10/21 10:33:16;;;;;;;22.35;12.23;;;16.70;99.90;;;;;;4997836;28;20117;-74
2022/10/21 10:35:54;;;;;;;19.70;12.27;;;16.60;99.90;;;;;;4992865;28;20034;-73
2022/10/21 10:38:41;;;;;;;24.40;12.23;;;16.60;99.90;;;;;;4993571;28;20612;-73
2022/10/21 10:41:17;;;;;;;17.00;10.57;;;16.60;99.90;;;;;;4992048;28;20036;-74
2022/10/21 10:43:51;;;;;;;18.80;12.45;;;16.70;99.90;;;;;;4985452;28;20504;-74
2022/10/21 10:46:28;;;;;;;22.77;11.95;;;16.80;99.90;;;;;;4991579;28;20548;-74
2022/10/21 10:48:56;;;;;;;19.00;11.68;;;16.90;99.90;;;;;;4999357;28;20113;-73
2022/10/21 10:51:27;;;;;;;19.95;11.35;;;16.80;99.90;;;;;;4993112;28;20133;-74
2022/10/21 10:54:02;;;;;;;20.70;11.70;;;16.80;99.90;;;;;;4992935;28;20069;-73
2022/10/21 10:56:40;;;;;;;18.73;11.90;;;17.00;99.90;;;;;;4993216;28;20033;-74
2022/10/21 10:59:21;;;;;;;23.20;12.68;;;16.80;99.90;;;;;;4996363;28;20030;-74
2022/10/21 11:01:49;;;;;;;24.13;11.73;;;16.80;99.90;;;;;;4989562;28;20036;-73
2022/10/21 11:04:22;;;;;;;19.40;11.52;;;16.90;99.90;;;;;;4982960;28;20030;-73
2022/10/21 11:06:52;;;;;;;18.75;11.48;;;17.00;99.90;;;;;;4993605;28;21204;-73
2022/10/21 11:09:19;;;;;;;24.27;12.57;;;17.00;99.90;;;;;;4978148;28;20038;-74
2022/10/21 11:11:47;;;;;;;17.88;11.43;;;17.00;99.90;;;;;;4985727;28;20511;-74
2022/10/21 11:14:15;;;;;;;24.08;11.95;;;17.10;99.90;;;;;;4990698;28;20350;-74
2022/10/21 11:16:52;;;;;;;25.98;14.23;;;17.10;99.90;;;;;;4989084;28;20142;-73
2022/10/21 11:19:23;;;;;;;34.35;21.25;;;17.20;99.90;;;;;;4988794;28;20038;-74
2022/10/21 11:21:55;;;;;;;38.95;22.00;;;17.30;99.90;;;;;;4997294;28;20038;-73
2022/10/21 11:24:20;;;;;;;88.85;52.17;;;17.40;99.90;;;;;;5002239;28;20041;-73
2022/10/21 11:27:00;;;;;;;47.00;38.60;;;17.20;99.90;;;;;;4999905;28;20046;-74
2022/10/21 11:29:47;;;;;;;38.20;26.33;;;17.20;99.90;;;;;;4992339;28;20137;-73
2022/10/21 11:32:21;;;;;;;24.63;19.48;;;17.30;99.90;;;;;;4987414;28;20049;-73
2022/10/21 11:34:59;;;;;;;;;;;17.30;99.90;;;;;;4987851;28;20034;-74
2022/10/21 11:37:37;;;;;;;30.90;25.92;;;17.40;99.90;;;;;;4996869;28;19909;-73
2022/10/21 11:40:24;;;;;;;24.45;14.40;;;17.50;99.90;;;;;;4987461;28;20262;-73
2022/10/21 11:42:51;;;;;;;45.05;36.40;;;17.60;99.90;;;;;;4997904;28;20111;-73
2022/10/21 11:45:33;;;;;;;39.92;29.98;;;17.60;99.90;;;;;;4993753;28;20371;-74
2022/10/21 11:48:22;;;;;;;35.58;23.50;;;17.60;99.90;;;;;;4999031;28;20038;-75
2022/10/21 11:51:18;;;;;;;24.30;14.95;;;17.70;99.90;;;;;;4992411;28;20034;-75
2022/10/21 11:53:46;;;;;;;25.33;17.60;;;17.60;99.90;;;;;;4997913;28;20132;-75
2022/10/21 11:56:41;;;;;;;18.63;12.85;;;17.60;99.90;;;;;;4992668;28;20686;-74
2022/10/21 11:59:34;;;;;;;21.67;13.05;;;17.60;99.90;;;;;;4995464;28;20057;-75
2022/10/21 12:02:23;;;;;;;23.77;12.73;;;17.60;99.90;;;;;;4990807;28;20044;-75
2022/10/21 12:05:16;;;;;;;21.65;15.57;;;17.60;99.90;;;;;;4990194;28;20045;-75
2022/10/21 12:08:07;;;;;;;23.40;14.98;;;17.60;99.90;;;;;;4997619;28;20117;-75
2022/10/21 12:10:46;;;;;;;19.08;13.00;;;17.60;99.90;;;;;;4985389;28;20495;-75
2022/10/21 12:13:26;;;;;;;20.88;14.98;;;17.70;99.90;;;;;;4994466;28;20042;-75
2022/10/21 12:16:07;;;;;;;17.15;12.98;;;17.60;99.90;;;;;;4994558;28;20050;-75
2022/10/21 12:18:39;;;;;;;22.55;14.13;;;17.70;99.90;;;;;;4988627;28;20040;-75
2022/10/21 12:21:08;;;;;;;21.20;12.80;;;17.70;99.90;;;;;;4998024;28;20026;-75
2022/10/21 12:23:34;;;;;;;24.90;12.98;;;17.80;99.90;;;;;;4987588;28;20117;-75
2022/10/21 12:25:59;;;;;;;23.80;13.77;;;17.80;99.90;;;;;;4997579;28;20519;-75
2022/10/21 12:28:39;;;;;;;17.45;13.05;;;17.90;99.90;;;;;;4993552;28;20164;-75
2022/10/21 12:31:53;;;;;;;19.60;13.38;;;17.80;99.90;;;;;;4994392;28;20030;-75
2022/10/21 12:34:20;;;;;;;22.27;13.13;;;17.80;99.90;;;;;;4985025;28;20108;-75
2022/10/21 12:36:52;;;;;;;20.83;12.40;;;17.70;99.90;;;;;;4993363;28;21865;-75
2022/10/21 12:39:33;;;;;;;21.17;12.50;;;17.60;99.90;;;;;;4993456;28;20029;-75
2022/10/21 12:42:12;;;;;;;22.85;13.02;;;17.70;99.90;;;;;;4994254;28;20038;-76
2022/10/21 12:44:44;;;;;;;18.15;11.35;;;17.80;99.90;;;;;;4990388;28;20022;-75
2022/10/21 12:47:33;;;;;;;27.90;12.57;;;17.80;99.90;;;;;;4985453;28;20088;-75
2022/10/21 12:50:04;;;;;;;24.98;13.45;;;17.70;99.90;;;;;;4989491;28;20560;-75